Time;durP1;ratioP1;P1;durP2;ratioP2;P2;SDS_P1;SDS_P2;PMS_P1;PMS_P2;Temp;Humidity;BMP_temperature;BMP_pressure;BME280_temperature;BME280_humidity;BME280_pressure;Samples;Min_cycle;Max_cycle;Signal;HPM_P1;HPM_P2
2022/08/02 00:00:27;;;;;;;;;;;16.60;99.90;;;;;;5069249;28;19925;-70
2022/08/02 00:02:56;;;;;;;;;;;16.50;99.90;;;;;;5052622;28;19995;-70
2022/08/02 00:05:23;;;;;;;;;;;16.60;99.90;;;;;;5069257;28;19936;-71
2022/08/02 00:07:49;;;;;;;;;;;16.60;99.90;;;;;;5052231;28;19938;-70
2022/08/02 00:10:16;;;;;;;;;;;16.50;99.90;;;;;;5052031;28;20349;-71
2022/08/02 00:12:43;;;;;;;;;;;16.40;99.90;;;;;;5069367;28;19928;-70
2022/08/02 00:15:11;;;;;;;;;;;16.40;99.90;;;;;;5069365;28;19928;-71
2022/08/02 00:17:38;;;;;;;;;;;16.40;99.90;;;;;;5046792;28;19925;-70
2022/08/02 00:20:07;;;;;;;;;;;16.40;99.90;;;;;;5065420;28;20338;-70
2022/08/02 00:22:33;;;;;;;;;;;16.30;99.90;;;;;;5050844;28;19932;-70
2022/08/02 00:25:00;;;;;;;;;;;16.30;99.90;;;;;;5065344;28;19928;-70
2022/08/02 00:27:27;;;;;;;;;;;16.30;99.90;;;;;;5052007;28;19931;-71
2022/08/02 00:29:54;;;;;;;;;;;16.20;99.90;;;;;;5046770;28;19924;-70
2022/08/02 00:32:22;;;;;;;;;;;16.10;99.90;;;;;;5068985;28;19925;-71
2022/08/02 00:34:48;;;;;;;;;;;16.10;99.90;;;;;;5065316;28;19932;-70
2022/08/02 00:37:17;;;;;;;;;;;16.10;99.90;;;;;;5068400;28;19932;-70
2022/08/02 00:39:44;;;;;;;;;;;16.10;99.90;;;;;;5068467;28;19931;-70
2022/08/02 00:42:10;;;;;;;;;;;16.10;99.90;;;;;;5052020;28;19928;-70
2022/08/02 00:44:37;;;;;;;;;;;16.10;99.90;;;;;;5051811;28;19925;-71
2022/08/02 00:47:04;;;;;;;;;;;16.10;99.90;;;;;;5051934;28;19925;-71
2022/08/02 00:49:31;;;;;;;;;;;16.10;99.90;;;;;;5047974;28;19924;-70
2022/08/02 00:51:58;;;;;;;;;;;16.10;99.90;;;;;;5067055;28;19925;-71
2022/08/02 00:54:26;;;;;;;;;;;16.10;99.90;;;;;;5068166;28;19934;-70
2022/08/02 00:56:53;;;;;;;;;;;16.10;99.90;;;;;;5047781;28;19971;-71
2022/08/02 00:59:20;;;;;;;;;;;16.10;99.90;;;;;;5067785;28;19925;-70
2022/08/02 01:01:46;;;;;;;;;;;16.10;99.90;;;;;;5068265;28;19932;-71
2022/08/02 01:04:14;;;;;;;;;;;16.00;99.90;;;;;;5067957;28;19929;-71
2022/08/02 01:06:41;;;;;;;;;;;16.10;99.90;;;;;;5051388;28;19925;-71
2022/08/02 01:09:08;;;;;;;;;;;16.00;99.90;;;;;;5065959;28;19925;-70
2022/08/02 01:11:37;;;;;;;;;;;16.00;99.90;;;;;;5051298;28;19940;-69
2022/08/02 01:14:05;;;;;;;;;;;16.00;99.90;;;;;;5051206;28;19935;-71
2022/08/02 01:16:33;;;;;;;;;;;16.00;99.90;;;;;;5065166;28;19925;-69
2022/08/02 01:19:06;;;;;;;;;;;16.00;99.90;;;;;;5050709;28;19947;-71
2022/08/02 01:21:38;;;;;;;;;;;16.00;99.90;;;;;;5048584;28;19929;-71
2022/08/02 01:24:13;;;;;;;;;;;16.00;99.90;;;;;;5045164;28;19925;-70
2022/08/02 01:26:43;;;;;;;;;;;16.00;99.90;;;;;;5049423;28;19929;-70
2022/08/02 01:29:13;;;;;;;;;;;16.10;99.90;;;;;;5066430;28;20023;-70
2022/08/02 01:31:42;;;;;;;;;;;16.10;99.90;;;;;;5067911;28;20476;-71
2022/08/02 01:34:13;;;;;;;;;;;16.10;99.90;;;;;;5050802;28;19925;-70
2022/08/02 01:36:41;;;;;;;;;;;16.00;99.90;;;;;;5050963;28;19929;-70
2022/08/02 01:39:10;;;;;;;;;;;16.00;99.90;;;;;;5050520;28;19924;-70
2022/08/02 01:41:37;;;;;;;;;;;16.00;99.90;;;;;;5064161;28;19948;-70
2022/08/02 01:44:04;;;;;;;;;;;16.00;99.90;;;;;;5050882;28;20339;-70
2022/08/02 01:46:34;;;;;;;;;;;16.00;99.90;;;;;;5047680;28;19924;-71
2022/08/02 01:49:03;;;;;;;;;;;16.00;99.90;;;;;;5050200;28;19931;-70
2022/08/02 01:54:17;;;;;;;;;;;15.90;99.90;;;;;;5067210;28;20043;-70
2022/08/02 01:56:45;;;;;;;;;;;15.90;99.90;;;;;;5049380;28;19929;-70
2022/08/02 01:59:13;;;;;;;;;;;15.90;99.90;;;;;;5066598;28;19932;-70
2022/08/02 02:01:42;;;;;;;;;;;15.80;99.90;;;;;;5067033;28;19925;-70
2022/08/02 02:04:09;;;;;;;;;;;15.70;99.90;;;;;;5049708;28;19925;-70
2022/08/02 02:06:37;;;;;;;;;;;15.70;99.90;;;;;;5066692;28;19925;-70
2022/08/02 02:09:04;;;;;;;;;;;15.60;99.90;;;;;;5050063;28;19925;-70
2022/08/02 02:11:32;;;;;;;;;;;15.50;99.90;;;;;;5047058;28;19931;-70
2022/08/02 02:14:00;;;;;;;;;;;15.50;99.90;;;;;;5049979;28;19925;-71
2022/08/02 02:16:27;;;;;;;;;;;15.50;99.90;;;;;;5067004;28;19925;-70
2022/08/02 02:18:56;;;;;;;;;;;15.50;99.90;;;;;;5049790;28;19929;-70
2022/08/02 02:21:22;;;;;;;;;;;15.50;99.90;;;;;;5050060;28;19925;-70
2022/08/02 02:23:49;;;;;;;;;;;15.40;99.90;;;;;;5066838;28;19929;-71
2022/08/02 02:26:17;;;;;;;;;;;15.40;99.90;;;;;;5066804;28;19925;-70
2022/08/02 02:28:45;;;;;;;;;;;15.40;99.90;;;;;;5066194;28;19925;-70
2022/08/02 02:31:14;;;;;;;;;;;15.40;99.90;;;;;;5066677;28;19931;-71
2022/08/02 02:33:44;;;;;;;;;;;15.40;99.90;;;;;;5066761;28;19928;-70
2022/08/02 02:36:14;;;;;;;;;;;15.50;99.90;;;;;;5049980;28;19929;-70
2022/08/02 02:38:41;;;;;;;;;;;15.50;99.90;;;;;;5049510;28;19925;-70
2022/08/02 02:41:08;;;;;;;;;;;15.40;99.90;;;;;;5044301;28;19925;-70
2022/08/02 02:43:36;;;;;;;;;;;15.40;99.90;;;;;;5066161;28;20351;-70
2022/08/02 02:46:04;;;;;;;;;;;15.40;99.90;;;;;;5049560;28;19925;-70
2022/08/02 02:48:31;;;;;;;;;;;15.40;99.90;;;;;;5046505;28;19924;-70
2022/08/02 02:50:58;;;;;;;;;;;15.40;99.90;;;;;;5049314;28;20411;-70
2022/08/02 02:53:28;;;;;;;;;;;15.30;99.90;;;;;;5049619;28;19944;-70
2022/08/02 02:55:55;;;;;;;;;;;15.40;99.90;;;;;;5062569;28;19929;-71
2022/08/02 02:58:22;;;;;;;;;;;15.40;99.90;;;;;;5049090;28;19948;-70
2022/08/02 03:03:33;;;;;;;;;;;15.50;99.90;;;;;;5059324;28;20353;-70
2022/08/02 03:06:00;;;;;;;;;;;15.40;99.90;;;;;;5066148;28;20427;-71
2022/08/02 03:08:29;;;;;;;;;;;15.40;99.90;;;;;;5048923;28;19925;-70
2022/08/02 03:10:56;;;;;;;;;;;15.40;99.90;;;;;;5061293;28;19932;-70
2022/08/02 03:13:23;;;;;;;;;;;15.40;99.90;;;;;;5065911;28;19925;-70
2022/08/02 03:15:52;;;;;;;;;;;15.30;99.90;;;;;;5069116;28;19924;-70
2022/08/02 03:18:34;;;;;;;;;;;15.30;99.90;;;;;;5050090;28;20342;-70
2022/08/02 03:21:01;;;;;;;;;;;15.20;99.90;;;;;;5050854;28;19925;-70
2022/08/02 03:23:30;;;;;;;;;;;15.10;99.90;;;;;;5069986;28;19937;-71
2022/08/02 03:25:57;;;;;;;;;;;15.00;99.90;;;;;;5070332;28;19932;-70
2022/08/02 03:28:23;;;;;;;;;;;15.00;99.90;;;;;;5053124;28;19925;-70
2022/08/02 03:30:50;;;;;;;;;;;15.00;99.90;;;;;;5052840;28;19925;-70
2022/08/02 03:33:18;;;;;;;;;;;14.90;99.90;;;;;;5069765;28;19970;-70
2022/08/02 03:35:47;;;;;;;;;;;14.90;99.90;;;;;;5070072;28;19931;-70
2022/08/02 03:38:15;;;;;;;;;;;14.80;99.90;;;;;;5052993;28;20348;-70
2022/08/02 03:40:43;;;;;;;;;;;14.80;99.90;;;;;;5069531;28;20346;-70
2022/08/02 03:43:11;;;;;;;;;;;14.80;99.90;;;;;;5069588;28;19932;-69
2022/08/02 03:45:39;;;;;;;;;;;14.70;99.90;;;;;;5069534;28;19925;-70
2022/08/02 03:48:06;;;;;;;;;;;14.70;99.90;;;;;;5069794;28;19932;-70
2022/08/02 03:50:33;;;;;;;;;;;14.70;99.90;;;;;;5069543;28;19932;-70
2022/08/02 03:53:01;;;;;;;;;;;14.70;99.90;;;;;;5053363;28;19924;-70
2022/08/02 03:55:28;;;;;;;;;;;14.70;99.90;;;;;;5052879;28;19925;-71
2022/08/02 03:57:56;;;;;;;;;;;14.60;99.90;;;;;;5052463;28;19925;-70
2022/08/02 04:00:23;;;;;;;;;;;14.60;99.90;;;;;;5068914;28;20427;-71
2022/08/02 04:02:50;;;;;;;;;;;14.70;99.90;;;;;;5066042;28;20339;-70
2022/08/02 04:05:17;;;;;;;;;;;14.60;99.90;;;;;;5069251;28;19940;-70
2022/08/02 04:07:44;;;;;;;;;;;14.60;99.90;;;;;;5052375;28;19929;-70
2022/08/02 04:10:10;;;;;;;;;;;14.60;99.90;;;;;;5052276;28;19929;-70
2022/08/02 04:12:37;;;;;;;;;;;14.70;99.90;;;;;;5069195;28;19924;-70
2022/08/02 04:15:07;;;;;;;;;;;14.70;99.90;;;;;;5066481;28;19936;-70
2022/08/02 04:17:36;;;;;;;;;;;14.80;99.90;;;;;;5061022;28;20328;-70
2022/08/02 04:20:05;;;;;;;;;;;14.80;99.90;;;;;;5041926;28;19925;-70
2022/08/02 04:22:36;;;;;;;;;;;14.90;99.90;;;;;;5066292;28;19996;-70
2022/08/02 04:25:05;;;;;;;;;;;14.90;99.90;;;;;;5069024;28;19925;-69
2022/08/02 04:27:31;;;;;;;;;;;14.90;99.90;;;;;;5043438;28;20011;-70
2022/08/02 04:30:00;;;;;;;;;;;15.00;99.90;;;;;;5046336;28;19964;-70
2022/08/02 04:32:28;;;;;;;;;;;15.10;99.90;;;;;;5068908;28;19940;-70
2022/08/02 04:34:55;;;;;;;;;;;15.20;99.90;;;;;;5052100;28;19929;-70
2022/08/02 04:37:23;;;;;;;;;;;15.20;99.90;;;;;;5068676;28;19925;-70
2022/08/02 04:39:49;;;;;;;;;;;15.30;99.90;;;;;;5068270;28;19925;-70
2022/08/02 04:42:20;;;;;;;;;;;15.40;99.90;;;;;;5069619;28;19932;-71
2022/08/02 04:44:46;;;;;;;;;;;15.50;99.90;;;;;;5052139;28;19925;-70
2022/08/02 04:47:13;;;;;;;;;;;15.40;99.90;;;;;;5051623;28;20392;-71
2022/08/02 04:49:42;;;;;;;;;;;15.50;99.90;;;;;;5051491;28;19924;-71
2022/08/02 04:52:08;;;;;;;;;;;15.50;99.90;;;;;;5064365;28;20342;-70
2022/08/02 04:54:35;;;;;;;;;;;15.60;99.90;;;;;;5068447;28;19925;-71
2022/08/02 04:57:53;;;;;;;;;;;15.60;99.90;;;;;;5067982;28;19925;-72
2022/08/02 04:59:49;;;;;;;;;;;15.70;99.90;;;;;;5066884;28;19925;-72
2022/08/02 05:02:15;;;;;;;;;;;15.70;99.90;;;;;;5041730;28;19936;-72
2022/08/02 05:04:44;;;;;;;;;;;15.80;99.90;;;;;;5044702;28;20380;-71
2022/08/02 05:07:10;;;;;;;;;;;15.90;99.90;;;;;;5051663;28;19928;-72
2022/08/02 05:09:37;;;;;;;;;;;16.00;99.90;;;;;;5050890;28;19936;-72
2022/08/02 05:12:04;;;;;;;;;;;16.10;99.90;;;;;;5068001;28;19931;-72
2022/08/02 05:14:31;;;;;;;;;;;16.20;99.90;;;;;;5061955;28;19925;-71
2022/08/02 05:16:58;;;;;;;;;;;16.40;99.90;;;;;;5068011;28;19986;-72
2022/08/02 05:19:25;;;;;;;;;;;16.60;99.90;;;;;;5067253;28;19925;-72
2022/08/02 05:21:53;;;;;;;;;;;16.80;99.90;;;;;;5067784;28;20309;-72
2022/08/02 05:24:20;;;;;;;;;;;17.00;99.90;;;;;;5067816;28;19925;-71
2022/08/02 05:26:46;;;;;;;;;;;17.10;99.90;;;;;;5067456;28;19932;-71
2022/08/02 05:29:13;;;;;;;;;;;17.20;99.90;;;;;;5048949;28;19925;-73
2022/08/02 05:31:40;;;;;;;;;;;17.30;99.90;;;;;;5040751;28;19925;-72
2022/08/02 05:34:07;;;;;;;;;;;17.40;99.90;;;;;;5044778;28;19925;-71
2022/08/02 05:36:34;;;;;;;;;;;17.50;99.90;;;;;;5067580;28;20301;-71
2022/08/02 05:39:02;;;;;;;;;;;17.50;99.90;;;;;;5049715;28;20015;-72
2022/08/02 05:41:29;;;;;;;;;;;17.50;99.90;;;;;;5049127;28;19925;-72
2022/08/02 05:43:55;;;;;;;;;;;17.50;99.90;;;;;;5067406;28;19925;-70
2022/08/02 05:46:23;;;;;;;;;;;17.50;99.90;;;;;;5050396;28;19924;-71
2022/08/02 05:48:49;;;;;;;;;;;17.50;99.90;;;;;;5049862;28;19925;-71
2022/08/02 05:51:20;;;;;;;;;;;17.60;99.90;;;;;;5049332;28;19929;-71
2022/08/02 05:53:50;;;;;;;;;;;17.70;99.90;;;;;;5042262;28;19925;-71
2022/08/02 05:56:23;;;;;;;;;;;17.70;99.90;;;;;;5047463;28;19925;-71
2022/08/02 05:58:50;;;;;;;;;;;17.90;99.90;;;;;;5061908;28;19959;-69
2022/08/02 06:01:27;;;;;;;;;;;18.00;99.90;;;;;;5049969;28;19929;-72
2022/08/02 06:03:56;;;;;;;;;;;18.10;99.90;;;;;;5060360;28;19933;-71
2022/08/02 06:06:25;;;;;;;;;;;18.20;99.90;;;;;;5050104;28;19948;-72
2022/08/02 06:08:55;;;;;;;;;;;18.30;99.90;;;;;;5065870;28;19964;-72
2022/08/02 06:11:25;;;;;;;;;;;18.50;99.90;;;;;;5058580;28;19924;-72
2022/08/02 06:13:53;;;;;;;;;;;18.60;99.90;;;;;;5066185;28;19925;-70
2022/08/02 06:16:19;;;;;;;;;;;18.70;99.90;;;;;;5046772;28;20354;-72
2022/08/02 06:18:47;;;;;;;;;;;18.80;99.90;;;;;;5041287;28;19929;-72
2022/08/02 06:21:15;;;;;;;;;;;18.90;99.90;;;;;;5066587;28;19925;-69
2022/08/02 06:23:42;;;;;;;;;;;19.00;99.90;;;;;;5043933;28;19925;-70
2022/08/02 06:26:09;;;;;;;;;;;19.10;99.90;;;;;;5046734;28;19929;-71
2022/08/02 06:28:39;;;;;;;;;;;19.20;99.90;;;;;;5046665;28;19925;-71
2022/08/02 06:31:06;;;;;;;;;;;19.30;99.90;;;;;;5049240;28;20297;-71
2022/08/02 06:33:33;;;;;;;;;;;19.40;99.90;;;;;;5045826;28;19934;-71
2022/08/02 06:36:03;;;;;;;;;;;19.50;99.90;;;;;;5048207;28;19928;-71
2022/08/02 06:38:33;;;;;;;;;;;19.60;99.90;;;;;;5042289;28;20320;-71
2022/08/02 06:41:02;;;;;;;;;;;19.70;99.90;;;;;;5049393;28;19928;-71
2022/08/02 06:43:31;;;;;;;;;;;19.80;99.90;;;;;;5049361;28;19979;-71
2022/08/02 06:45:59;;;;;;;;;;;19.90;99.90;;;;;;5063921;28;20362;-71
2022/08/02 06:48:26;;;;;;;;;;;20.00;99.90;;;;;;5049127;28;19955;-71
2022/08/02 06:50:53;;;;;;;;;;;20.10;99.90;;;;;;5046536;28;19929;-71
2022/08/02 06:53:19;;;;;;;;;;;20.30;99.90;;;;;;5048197;28;19925;-72
2022/08/02 06:55:46;;;;;;;;;;;20.40;99.90;;;;;;5050967;28;19928;-72
2022/08/02 06:58:13;;;;;;;;;;;20.50;99.90;;;;;;5068679;28;20051;-72
2022/08/02 07:00:40;;;;;;;;;;;20.60;99.90;;;;;;5057865;28;19929;-71
2022/08/02 07:03:08;;;;;;;;;;;20.70;99.90;;;;;;5046679;28;20308;-72
2022/08/02 07:05:35;;;;;;;;;;;20.80;99.90;;;;;;5066174;28;19928;-72
2022/08/02 07:08:02;;;;;;;;;;;20.90;99.90;;;;;;5048826;28;19933;-72
2022/08/02 07:10:29;;;;;;;;;;;21.00;99.90;;;;;;5049238;28;20351;-72
2022/08/02 07:12:56;;;;;;;;;;;21.10;99.90;;;;;;5066609;28;19932;-72
2022/08/02 07:15:23;;;;;;;;;;;21.20;99.90;;;;;;5058702;28;19925;-71
2022/08/02 07:17:49;;;;;;;;;;;21.30;99.90;;;;;;5066172;28;19929;-72
2022/08/02 07:20:18;;;;;;;;;;;21.50;99.90;;;;;;5049315;28;19925;-72
2022/08/02 07:22:44;;;;;;;;;;;21.50;99.90;;;;;;5049777;28;19925;-71
2022/08/02 07:25:11;;;;;;;;;;;21.70;99.90;;;;;;5049460;28;20392;-71
2022/08/02 07:27:38;;;;;;;;;;;21.70;99.90;;;;;;5066065;28;19944;-70
2022/08/02 07:30:06;;;;;;;;;;;21.80;99.90;;;;;;5049311;28;19932;-71
2022/08/02 07:32:32;;;;;;;;;;;21.90;99.90;;;;;;5044155;28;20389;-70
2022/08/02 07:35:00;;;;;;;;;;;22.00;99.90;;;;;;5049231;28;19928;-70
2022/08/02 07:37:29;;;;;;;;;;;22.10;99.90;;;;;;5065900;28;19929;-70
2022/08/02 07:39:56;;;;;;;;;;;22.20;99.90;;;;;;5065792;28;19924;-70
2022/08/02 07:42:23;;;;;;;;;;;22.30;99.90;;;;;;5065758;28;19933;-69
2022/08/02 07:44:50;;;;;;;;;;;22.50;99.90;;;;;;5049100;28;19925;-70
2022/08/02 07:47:17;;;;;;;;;;;22.50;99.90;;;;;;5048999;28;19956;-69
2022/08/02 07:49:44;;;;;;;;;;;22.70;99.90;;;;;;5048755;28;19925;-70
2022/08/02 07:52:11;;;;;;;;;;;22.80;99.90;;;;;;5066029;28;19925;-70
2022/08/02 07:54:39;;;;;;;;;;;22.90;99.90;;;;;;5049000;28;19925;-70
2022/08/02 07:57:06;;;;;;;;;;;23.00;99.90;;;;;;5061915;28;19929;-69
2022/08/02 07:59:33;;;;;;;;;;;23.20;99.90;;;;;;5064526;28;19948;-69
2022/08/02 08:01:59;;;;;;;;;;;23.30;99.90;;;;;;5051550;28;19929;-69
2022/08/02 08:04:26;;;;;;;;;;;23.40;99.90;;;;;;5051548;28;19925;-69
2022/08/02 08:06:54;;;;;;;;;;;23.50;99.90;;;;;;5067432;28;19953;-69
2022/08/02 08:09:21;;;;;;;;;;;23.60;99.90;;;;;;5042648;28;19925;-69
2022/08/02 08:11:49;;;;;;;;;;;23.70;99.90;;;;;;5066182;28;20404;-69
2022/08/02 08:14:16;;;;;;;;;;;23.90;99.90;;;;;;5048248;28;19929;-69
2022/08/02 08:16:42;;;;;;;;;;;24.10;99.90;;;;;;5050322;28;19925;-69
2022/08/02 08:19:09;;;;;;;;;;;24.30;99.90;;;;;;5067189;28;19929;-69
2022/08/02 08:21:36;;;;;;;;;;;24.30;99.90;;;;;;5046896;28;19929;-69
2022/08/02 08:24:03;;;;;;;;;;;24.60;99.90;;;;;;5047796;28;19932;-69
2022/08/02 08:26:30;;;;;;;;;;;24.80;99.90;;;;;;5050681;28;19929;-69
2022/08/02 08:28:59;;;;;;;;;;;24.90;99.90;;;;;;5048415;28;19924;-69
2022/08/02 08:31:26;;;;;;;;;;;25.00;99.90;;;;;;5049297;28;19936;-69
2022/08/02 08:33:53;;;;;;;;;;;25.00;99.90;;;;;;5051716;28;19925;-69
2022/08/02 08:36:20;;;;;;;;;;;24.90;99.90;;;;;;5048687;28;19951;-69
2022/08/02 08:38:47;;;;;;;;;;;24.90;99.90;;;;;;5067647;28;20408;-69
2022/08/02 08:41:15;;;;;;;;;;;24.90;99.90;;;;;;5051174;28;20388;-69
2022/08/02 08:43:42;;;;;;;;;;;24.80;99.90;;;;;;5051380;28;19925;-69
2022/08/02 08:46:11;;;;;;;;;;;24.70;99.90;;;;;;5051581;28;19929;-69
2022/08/02 08:48:40;;;;;;;;;;;24.80;99.90;;;;;;5051504;28;19928;-69
2022/08/02 08:51:08;;;;;;;;;;;24.90;99.90;;;;;;5067585;28;19929;-69
2022/08/02 08:53:39;;;;;;;;;;;25.00;99.90;;;;;;5048793;28;20470;-69
2022/08/02 08:56:06;;;;;;;;;;;25.10;99.90;;;;;;5049638;28;19925;-69
2022/08/02 08:58:32;;;;;;;;;;;25.20;99.90;;;;;;5067472;28;20363;-69
2022/08/02 09:00:59;;;;;;;;;;;25.20;99.90;;;;;;5050877;28;19936;-69
2022/08/02 09:03:28;;;;;;;;;;;25.30;99.90;;;;;;5067684;28;19936;-69
2022/08/02 09:05:57;;;;;;;;;;;25.40;99.90;;;;;;5045434;28;19932;-70
2022/08/02 09:08:24;;;;;;;;;;;25.40;99.90;;;;;;5051112;28;19939;-69
2022/08/02 09:10:50;;;;;;;;;;;25.50;99.90;;;;;;5067378;28;19924;-69
2022/08/02 09:13:19;;;;;;;;;;;25.70;99.90;;;;;;5066500;28;19931;-69
2022/08/02 09:15:52;;;;;;;;;;;25.70;99.90;;;;;;5051294;28;19929;-69
2022/08/02 09:18:19;;;;;;;;;;;25.90;99.90;;;;;;5050575;28;19925;-69
2022/08/02 09:20:56;;;;;;;;;;;26.10;99.90;;;;;;5067288;28;19929;-69
2022/08/02 09:23:23;;;;;;;;;;;26.30;99.90;;;;;;5050333;28;19933;-69
2022/08/02 09:25:57;;;;;;;;;;;26.20;99.90;;;;;;5049253;28;19932;-69
2022/08/02 09:28:28;;;;;;;;;;;26.10;99.90;;;;;;5050586;28;19972;-69
2022/08/02 09:31:02;;;;;;;;;;;26.10;99.90;;;;;;5047047;28;19924;-70
2022/08/02 09:33:29;;;;;;;;;;;26.30;99.90;;;;;;5046378;28;19939;-69
2022/08/02 09:36:01;;;;;;;;;;;26.50;99.90;;;;;;5062759;28;19924;-69
2022/08/02 09:38:30;;;;;;;;;;;26.50;99.90;;;;;;5041972;28;20128;-69
2022/08/02 09:40:57;;;;;;;;;;;26.40;99.90;;;;;;5062381;28;19925;-69
2022/08/02 09:43:35;;;;;;;;;;;26.60;99.90;;;;;;5066066;28;19925;-69
2022/08/02 09:46:09;;;;;;;;;;;26.60;99.90;;;;;;5064203;28;20388;-69
2022/08/02 09:48:45;;;;;;;;;;;26.80;99.90;;;;;;5049752;28;19974;-69
2022/08/02 09:51:16;;;;;;;;;;;27.00;99.90;;;;;;5049873;28;20001;-70
2022/08/02 09:53:43;;;;;;;;;;;26.90;99.90;;;;;;5065198;28;19925;-69
2022/08/02 09:56:10;;;;;;;;;;;26.60;99.90;;;;;;5064059;28;19932;-69
2022/08/02 09:58:38;;;;;;;;;;;26.60;99.90;;;;;;5065862;28;20400;-68
2022/08/02 10:01:05;;;;;;;;;;;26.50;99.90;;;;;;5065392;28;19940;-70
2022/08/02 10:03:31;;;;;;;;;;;26.50;99.90;;;;;;5058331;28;19928;-69
2022/08/02 10:06:00;;;;;;;;;;;26.40;99.90;;;;;;5060548;28;19929;-69
2022/08/02 10:08:29;;;;;;;;;;;26.50;99.90;;;;;;5050004;28;19925;-69
2022/08/02 10:11:00;;;;;;;;;;;26.70;99.90;;;;;;5050795;28;19924;-69
2022/08/02 10:13:28;;;;;;;;;;;26.80;99.90;;;;;;5065710;28;20027;-70
2022/08/02 10:15:55;;;;;;;;;;;26.70;99.90;;;;;;5064172;28;19929;-70
2022/08/02 10:18:22;;;;;;;;;;;26.80;99.90;;;;;;5066356;28;19925;-70
2022/08/02 10:20:50;;;;;;;;;;;27.10;99.90;;;;;;5066649;28;19929;-70
2022/08/02 10:23:19;;;;;;;;;;;26.90;99.90;;;;;;5047693;28;19928;-70
2022/08/02 10:25:50;;;;;;;;;;;26.90;99.90;;;;;;5063168;28;19924;-70
2022/08/02 10:28:18;;;;;;;;;;;27.20;99.90;;;;;;5043212;28;19947;-69
2022/08/02 10:30:47;;;;;;;;;;;27.60;99.90;;;;;;5063223;28;19925;-70
2022/08/02 10:33:16;;;;;;;;;;;27.70;99.90;;;;;;5049626;28;20388;-70
2022/08/02 10:35:44;;;;;;;;;;;27.50;99.90;;;;;;5049847;28;19932;-70
2022/08/02 10:38:12;;;;;;;;;;;27.60;99.90;;;;;;5066308;28;19932;-70
2022/08/02 10:40:46;;;;;;;;;;;27.60;99.90;;;;;;5065829;28;19959;-70
2022/08/02 10:43:34;;;;;;;;;;;27.70;99.90;;;;;;5049950;28;19924;-70
2022/08/02 10:46:15;;;;;;;;;;;27.60;99.90;;;;;;5045606;28;19928;-70
2022/08/02 10:48:57;;;;;;;;;;;27.40;99.90;;;;;;5047265;28;20442;-70
2022/08/02 10:51:24;;;;;;;;;;;27.40;99.90;;;;;;5046904;28;20022;-70
2022/08/02 10:54:07;;;;;;;;;;;27.60;99.90;;;;;;5043585;28;19929;-70
2022/08/02 10:56:45;;;;;;;;;;;27.50;99.90;;;;;;5045475;28;19925;-70
2022/08/02 10:59:25;;;;;;;;;;;27.30;99.90;;;;;;5063891;28;20403;-68
2022/08/02 11:01:52;;;;;;;;;;;27.50;99.90;;;;;;5065888;28;19932;-68
2022/08/02 11:04:19;;;;;;;;;;;27.80;99.90;;;;;;5048955;28;19931;-69
2022/08/02 11:07:04;;;;;;;;;;;27.90;99.90;;;;;;5045074;28;19925;-68
2022/08/02 11:09:31;;;;;;;;;;;27.90;99.90;;;;;;5044057;28;19929;-68
2022/08/02 11:12:03;;;;;;;;;;;28.10;99.90;;;;;;5048623;28;20036;-68
2022/08/02 11:14:31;;;;;;;;;;;28.20;99.90;;;;;;5044459;28;20008;-69
2022/08/02 11:17:05;;;;;;;;;;;28.50;99.90;;;;;;5045016;28;20023;-68
2022/08/02 11:19:33;;;;;;;;;;;28.50;99.90;;;;;;5062240;28;20388;-68
2022/08/02 11:22:01;;;;;;;;;;;28.60;99.90;;;;;;5062037;28;19987;-68
2022/08/02 11:24:29;;;;;;;;;;;28.60;99.90;;;;;;5065563;28;20004;-69
2022/08/02 11:26:57;;;;;;;;;;;29.00;99.90;;;;;;5048986;28;19928;-69
2022/08/02 11:29:33;;;;;;;;;;;29.00;99.90;;;;;;5060659;28;19928;-68
2022/08/02 11:31:59;;;;;;;;;;;28.80;99.90;;;;;;5048986;28;19929;-68
2022/08/02 11:34:26;;;;;;;;;;;29.10;99.90;;;;;;5065368;28;19925;-68
2022/08/02 11:36:53;;;;;;;;;;;29.40;99.90;;;;;;5050872;28;19960;-68
2022/08/02 11:39:20;;;;;;;;;;;29.20;99.90;;;;;;5051753;28;19925;-69
2022/08/02 11:41:51;;;;;;;;;;;29.20;99.90;;;;;;5044757;28;19925;-69
2022/08/02 11:44:18;;;;;;;;;;;29.60;99.90;;;;;;5052887;28;19925;-68
2022/08/02 11:46:53;;;;;;;;;;;30.00;99.90;;;;;;5068079;28;19944;-68
2022/08/02 11:49:20;;;;;;;;;;;29.90;99.90;;;;;;5045002;28;19929;-68
2022/08/02 11:51:59;;;;;;;;;;;29.60;99.90;;;;;;5069364;28;19925;-68
2022/08/02 11:54:27;;;;;;;;;;;29.50;99.90;;;;;;5052695;28;19939;-69
2022/08/02 11:56:53;;;;;;;;;;;29.90;99.90;;;;;;5049787;28;19932;-68
2022/08/02 11:59:20;;;;;;;;;;;30.30;99.90;;;;;;5051543;28;19939;-68
2022/08/02 12:01:49;;;;;;;;;;;30.20;99.90;;;;;;5069111;28;20383;-68
2022/08/02 12:04:17;;;;;;;;;;;30.60;99.90;;;;;;5051578;28;19932;-68
2022/08/02 12:06:44;;;;;;;;;;;30.60;99.90;;;;;;5064464;28;19925;-68
2022/08/02 12:09:12;;;;;;;;;;;30.40;99.90;;;;;;5067232;28;19931;-68
2022/08/02 12:11:38;;;;;;;;;;;29.90;99.90;;;;;;5067780;28;19924;-68
2022/08/02 12:14:06;;;;;;;;;;;29.50;99.90;;;;;;5045848;28;19933;-68
2022/08/02 12:19:21;;;;;;;;;;;29.20;99.90;;;;;;5047950;28;19933;-68
2022/08/02 12:21:49;;;;;;;;;;;30.00;99.90;;;;;;5049126;28;19933;-68
2022/08/02 12:24:27;;;;;;;;;;;31.10;99.90;;;;;;5050895;28;19955;-68
2022/08/02 12:26:53;;;;;;;;;;;32.00;99.90;;;;;;5043185;28;19924;-68
2022/08/02 12:29:28;;;;;;;;;;;33.10;99.90;;;;;;5045751;28;19925;-69
2022/08/02 12:31:55;;;;;;;;;;;34.20;99.90;;;;;;5046429;28;19928;-68
2022/08/02 12:34:23;;;;;;;;;;;35.30;99.90;;;;;;5047703;28;19932;-67
2022/08/02 12:36:58;;;;;;;;;;;34.40;99.90;;;;;;5067379;28;19974;-68
2022/08/02 12:39:34;;;;;;;;;;;33.70;99.90;;;;;;5048861;28;19929;-68
2022/08/02 12:42:01;;;;;;;;;;;33.00;99.90;;;;;;5067127;28;20312;-69
2022/08/02 12:44:27;;;;;;;;;;;31.80;99.90;;;;;;5050265;28;19978;-69
2022/08/02 12:47:01;;;;;;;;;;;31.30;99.90;;;;;;5050598;28;19928;-68
2022/08/02 12:49:29;;;;;;;;;;;31.20;99.90;;;;;;5050337;28;20020;-69
2022/08/02 12:51:56;;;;;;;;;;;31.10;99.90;;;;;;5048829;28;19928;-68
2022/08/02 12:54:24;;;;;;;;;;;30.50;99.90;;;;;;5067206;28;20301;-69
2022/08/02 12:56:51;;;;;;;;;;;30.80;99.90;;;;;;5050839;28;20363;-68
2022/08/02 12:59:33;;;;;;;;;;;31.00;99.90;;;;;;5063467;28;19947;-68
2022/08/02 13:02:01;;;;;;;;;;;31.30;99.90;;;;;;5042498;28;20403;-70
2022/08/02 13:04:29;;;;;;;;;;;31.70;99.90;;;;;;4990788;28;1730152;-69
2022/08/02 13:06:56;;;;;;;;;;;31.90;99.90;;;;;;5048288;28;19956;-69
2022/08/02 13:09:22;;;;;;;;;;;32.60;99.90;;;;;;5051143;28;19925;-69
2022/08/02 13:11:49;;;;;;;;;;;33.70;99.90;;;;;;5068096;28;19925;-69
2022/08/02 13:14:16;;;;;;;;;;;34.60;99.90;;;;;;5062831;28;19925;-69
2022/08/02 13:16:44;;;;;;;;;;;34.40;99.90;;;;;;5051657;28;19929;-69
2022/08/02 13:19:11;;;;;;;;;;;34.70;99.90;;;;;;5049141;28;19925;-69
2022/08/02 13:21:40;;;;;;;;;;;33.90;99.90;;;;;;5048745;28;20035;-69
2022/08/02 13:24:07;;;;;;;;;;;33.30;99.90;;;;;;5046836;28;19932;-69
2022/08/02 13:26:33;;;;;;;;;;;33.30;99.90;;;;;;5067919;28;19925;-70
2022/08/02 13:29:00;;;;;;;;;;;33.80;99.90;;;;;;5066516;28;20380;-68
2022/08/02 13:31:27;;;;;;;;;;;33.60;99.90;;;;;;5060663;28;19925;-70
2022/08/02 13:33:54;;;;;;;;;;;32.90;99.90;;;;;;5048762;28;20416;-68
2022/08/02 13:36:20;;;;;;;;;;;32.90;99.90;;;;;;5046636;28;20297;-69
2022/08/02 13:38:49;;;;;;;;;;;32.80;99.90;;;;;;5067188;28;19932;-67
2022/08/02 13:41:16;;;;;;;;;;;33.10;99.90;;;;;;5067240;28;19925;-69
2022/08/02 13:43:43;;;;;;;;;;;33.40;99.90;;;;;;5067357;28;20022;-70
2022/08/02 13:46:10;;;;;;;;;;;34.10;99.90;;;;;;5067776;28;19925;-69
2022/08/02 13:48:37;;;;;;;;;;;34.20;99.90;;;;;;5050032;28;20423;-69
2022/08/02 13:51:05;;;;;;;;;;;34.40;99.90;;;;;;5050544;28;19940;-69
2022/08/02 13:53:31;;;;;;;;;;;34.40;99.90;;;;;;5062456;28;19929;-70
2022/08/02 13:56:01;;;;;;;;;;;35.50;99.90;;;;;;5067313;28;20335;-70
2022/08/02 13:58:28;;;;;;;;;;;35.80;99.90;;;;;;5063151;28;20020;-70
2022/08/02 14:00:55;;;;;;;;;;;34.90;99.90;;;;;;5059704;28;19983;-69
2022/08/02 14:03:21;;;;;;;;;;;34.70;99.90;;;;;;5048538;28;19924;-69
2022/08/02 14:05:48;;;;;;;;;;;34.90;99.90;;;;;;5046877;28;19933;-70
2022/08/02 14:08:15;;;;;;;;;;;34.80;99.90;;;;;;5044684;28;19925;-70
2022/08/02 14:10:42;;;;;;;;;;;35.10;99.90;;;;;;5067603;28;20392;-70
2022/08/02 14:13:11;;;;;;;;;;;35.90;99.90;;;;;;5050268;28;19924;-70
2022/08/02 14:15:37;;;;;;;;;;;36.80;99.90;;;;;;5046104;28;19925;-69
2022/08/02 14:18:04;;;;;;;;;;;37.10;99.90;;;;;;5048553;28;19928;-67
2022/08/02 14:20:31;;;;;;;;;;;36.20;99.90;;;;;;5044661;28;20355;-68
2022/08/02 14:22:58;;;;;;;;;;;36.00;99.90;;;;;;5046826;28;19929;-68
2022/08/02 14:25:25;;;;;;;;;;;35.60;99.90;;;;;;5048043;28;19925;-67
2022/08/02 14:27:52;;;;;;;;;;;36.50;99.90;;;;;;5048273;28;20011;-67
2022/08/02 14:30:22;;;;;;;;;;;36.70;99.90;;;;;;5066213;28;19955;-67